createdAt,value
2018-12-09T00:01:30.586Z,22.80
2018-12-09T00:04:05.267Z,15.00
2018-12-09T00:06:40.281Z,20.37
2018-12-09T00:09:15.141Z,18.53
2018-12-09T00:11:49.907Z,17.63
2018-12-09T00:14:24.868Z,17.67
2018-12-09T00:16:59.639Z,24.80
2018-12-09T00:19:34.552Z,17.10
2018-12-09T00:22:09.383Z,21.33
2018-12-09T00:24:44.326Z,17.33
2018-12-09T00:27:19.180Z,17.47
2018-12-09T00:29:53.991Z,18.73
2018-12-09T00:32:28.800Z,18.43
2018-12-09T00:35:04.128Z,21.90
2018-12-09T00:37:38.985Z,13.23
2018-12-09T00:40:13.896Z,15.33
2018-12-09T00:42:49.352Z,17.10
2018-12-09T00:45:24.066Z,19.90
2018-12-09T00:47:59.019Z,17.47
2018-12-09T00:50:33.829Z,17.10
2018-12-09T00:53:08.606Z,12.40
2018-12-09T00:55:43.471Z,19.10
2018-12-09T00:58:18.372Z,22.00
2018-12-09T01:00:53.104Z,22.20
2018-12-09T01:03:28.340Z,27.30
2018-12-09T01:06:03.941Z,20.67
2018-12-09T01:08:38.963Z,15.73
2018-12-09T01:11:13.730Z,22.87
2018-12-09T01:13:49.460Z,26.27
2018-12-09T01:16:24.566Z,26.87
2018-12-09T01:18:59.461Z,23.67
2018-12-09T01:21:34.490Z,13.40
2018-12-09T01:24:09.537Z,16.27
2018-12-09T01:26:44.553Z,22.87
2018-12-09T01:29:19.453Z,22.87
2018-12-09T01:31:54.569Z,19.03
2018-12-09T01:34:29.649Z,21.33
2018-12-09T01:37:04.353Z,24.37
2018-12-09T01:39:39.257Z,25.60
2018-12-09T01:42:14.032Z,17.77
2018-12-09T01:44:48.735Z,22.73
2018-12-09T01:47:23.437Z,24.83
2018-12-09T01:49:59.439Z,24.07
2018-12-09T01:52:34.256Z,19.83
2018-12-09T01:55:09.074Z,20.10
2018-12-09T01:57:44.414Z,15.10
2018-12-09T02:00:19.318Z,25.50
2018-12-09T02:02:54.195Z,21.43
2018-12-09T02:05:29.720Z,14.00
2018-12-09T02:08:04.725Z,18.03
2018-12-09T02:10:39.724Z,13.07
2018-12-09T02:13:14.695Z,25.07
2018-12-09T02:15:49.639Z,30.53
2018-12-09T02:18:24.241Z,26.47
2018-12-09T02:20:59.145Z,28.93
2018-12-09T02:23:34.744Z,30.17
2018-12-09T02:26:09.331Z,24.83
2018-12-09T02:28:44.061Z,19.47
2018-12-09T02:31:19.034Z,18.67
2018-12-09T02:33:54.001Z,20.73
2018-12-09T02:36:29.284Z,19.83
2018-12-09T02:39:06.041Z,18.10
2018-12-09T02:41:40.809Z,8.80
2018-12-09T02:44:15.698Z,16.43
2018-12-09T02:46:50.474Z,10.13
2018-12-09T02:49:25.277Z,5.47
2018-12-09T02:52:00.527Z,6.37
2018-12-09T02:54:35.260Z,15.13
2018-12-09T02:57:10.337Z,16.87
2018-12-09T02:59:45.179Z,21.23
2018-12-09T03:02:20.447Z,19.83
2018-12-09T03:04:55.450Z,27.40
2018-12-09T03:07:30.207Z,26.57
2018-12-09T03:10:06.655Z,24.97
2018-12-09T03:12:41.726Z,40.60
2018-12-09T03:15:16.853Z,21.67
2018-12-09T03:17:51.604Z,21.67
2018-12-09T03:20:26.451Z,24.53
2018-12-09T03:23:01.250Z,31.07
2018-12-09T03:25:36.034Z,30.83
2018-12-09T03:28:11.101Z,18.43
2018-12-09T03:30:46.151Z,15.20
2018-12-09T03:33:20.890Z,14.40
2018-12-09T03:35:55.996Z,19.50
2018-12-09T03:38:31.340Z,9.27
2018-12-09T03:41:06.956Z,11.70
2018-12-09T03:43:41.770Z,4.70
2018-12-09T03:46:16.503Z,9.53
2018-12-09T03:48:51.715Z,10.27
2018-12-09T03:51:26.995Z,11.50
2018-12-09T03:54:01.645Z,7.37
2018-12-09T03:56:36.478Z,6.80
2018-12-09T03:59:11.154Z,5.30
2018-12-09T04:01:46.084Z,3.80
2018-12-09T04:04:20.818Z,9.30
2018-12-09T04:06:55.576Z,5.47
2018-12-09T04:09:30.506Z,6.70
2018-12-09T04:12:05.335Z,6.33
2018-12-09T04:14:39.971Z,2.10
2018-12-09T04:17:14.834Z,6.63
2018-12-09T04:19:49.623Z,4.77
2018-12-09T04:22:24.515Z,6.80
2018-12-09T04:24:59.851Z,7.57
2018-12-09T04:27:34.599Z,3.80
2018-12-09T04:30:09.822Z,8.53
2018-12-09T04:32:44.686Z,4.60
2018-12-09T04:35:19.624Z,7.90
2018-12-09T04:37:54.737Z,7.10
2018-12-09T04:40:29.585Z,8.90
2018-12-09T04:43:11.096Z,10.93
2018-12-09T04:45:45.757Z,10.50
2018-12-09T04:48:20.802Z,8.70
2018-12-09T04:50:56.105Z,9.37
2018-12-09T04:53:31.075Z,8.73
2018-12-09T04:56:05.845Z,8.53
2018-12-09T04:58:56.461Z,10.37
2018-12-09T05:01:31.471Z,7.37
2018-12-09T05:04:06.818Z,7.27
2018-12-09T05:06:41.977Z,8.80
2018-12-09T05:09:16.799Z,9.60
2018-12-09T05:11:51.488Z,8.87
2018-12-09T05:14:26.300Z,11.00
2018-12-09T05:17:01.186Z,10.70
2018-12-09T05:19:36.168Z,9.33
2018-12-09T05:22:11.135Z,9.30
2018-12-09T05:24:45.965Z,9.77
2018-12-09T05:27:20.927Z,8.73
2018-12-09T05:29:55.920Z,9.23
2018-12-09T05:32:30.860Z,7.20
2018-12-09T05:35:07.064Z,6.00
2018-12-09T05:37:42.183Z,8.30
2018-12-09T05:40:17.052Z,10.93
2018-12-09T05:42:52.210Z,6.50
2018-12-09T05:45:27.101Z,10.80
2018-12-09T05:48:01.852Z,8.40
2018-12-09T05:50:36.695Z,10.57
2018-12-09T05:53:11.805Z,8.47
2018-12-09T05:55:46.404Z,12.87
2018-12-09T05:58:25.297Z,13.07
2018-12-09T06:01:00.648Z,14.43
2018-12-09T06:03:35.293Z,13.93
2018-12-09T06:06:10.172Z,18.50
2018-12-09T06:08:45.279Z,15.90
2018-12-09T06:11:20.464Z,13.50
2018-12-09T06:13:55.643Z,11.57
2018-12-09T06:16:30.595Z,22.27
2018-12-09T06:19:05.387Z,12.67
2018-12-09T06:21:40.247Z,12.47
2018-12-09T06:24:15.015Z,28.17
2018-12-09T06:26:49.619Z,19.87
2018-12-09T06:29:24.325Z,18.47
2018-12-09T06:31:59.528Z,30.90
2018-12-09T06:34:34.619Z,28.20
2018-12-09T06:37:09.596Z,17.23
2018-12-09T06:39:44.532Z,25.43
2018-12-09T06:42:19.349Z,19.60
2018-12-09T06:44:54.989Z,23.83
2018-12-09T06:47:29.874Z,28.90
2018-12-09T06:50:07.292Z,21.60
2018-12-09T06:52:42.155Z,24.97
2018-12-09T06:55:16.880Z,32.50
2018-12-09T06:57:52.086Z,26.17
2018-12-09T07:00:27.083Z,18.20
2018-12-09T07:03:02.297Z,24.90
2018-12-09T07:05:37.348Z,21.57
2018-12-09T07:08:12.884Z,25.00
2018-12-09T07:10:48.423Z,14.93
2018-12-09T07:13:23.364Z,21.23
2018-12-09T07:15:58.163Z,20.13
2018-12-09T07:18:33.044Z,22.83
2018-12-09T07:21:08.059Z,15.63
2018-12-09T07:23:43.243Z,19.30
2018-12-09T07:26:18.074Z,18.73
2018-12-09T07:28:53.980Z,19.03
2018-12-09T07:31:28.641Z,14.33
2018-12-09T07:34:04.077Z,15.97
2018-12-09T07:36:39.784Z,13.30
2018-12-09T07:39:14.804Z,20.90
2018-12-09T07:41:49.470Z,19.57
2018-12-09T07:44:24.496Z,24.40
2018-12-09T07:46:59.597Z,16.13
2018-12-09T07:49:34.849Z,11.57
2018-12-09T07:52:09.764Z,13.27
2018-12-09T07:54:44.617Z,17.97
2018-12-09T07:57:19.588Z,15.73
2018-12-09T07:59:54.589Z,15.03
2018-12-09T08:02:29.409Z,23.50
2018-12-09T08:05:05.219Z,13.57
2018-12-09T08:07:39.973Z,13.43
2018-12-09T08:10:14.747Z,16.20
2018-12-09T08:12:49.578Z,19.57
2018-12-09T08:15:24.312Z,18.00
2018-12-09T08:17:59.138Z,17.30
2018-12-09T08:20:33.848Z,17.00
2018-12-09T08:23:08.888Z,13.83
2018-12-09T08:25:43.842Z,13.87
2018-12-09T08:28:18.960Z,15.80
2018-12-09T08:30:53.771Z,17.73
2018-12-09T08:33:28.924Z,15.50
2018-12-09T08:36:04.167Z,15.47
2018-12-09T08:38:39.035Z,20.43
2018-12-09T08:41:14.193Z,21.03
2018-12-09T08:43:49.169Z,12.77
2018-12-09T08:46:24.257Z,16.50
2018-12-09T08:48:58.909Z,14.53
2018-12-09T08:51:33.760Z,17.80
2018-12-09T08:54:08.767Z,15.13
2018-12-09T08:56:43.606Z,14.00
2018-12-09T08:59:18.431Z,15.40
2018-12-09T09:01:53.614Z,17.27
2018-12-09T09:04:28.710Z,17.30
2018-12-09T09:07:03.517Z,13.00
2018-12-09T09:09:38.490Z,11.03
2018-12-09T09:12:13.329Z,18.97
2018-12-09T09:14:48.093Z,16.37
2018-12-09T09:17:23.007Z,16.73
2018-12-09T09:19:57.735Z,15.67
2018-12-09T09:22:32.943Z,15.60
2018-12-09T09:25:08.086Z,10.63
2018-12-09T09:27:43.004Z,14.33
2018-12-09T09:30:18.438Z,12.43
2018-12-09T09:32:53.263Z,14.50
2018-12-09T09:35:28.202Z,16.07
2018-12-09T09:38:03.387Z,13.50
2018-12-09T09:40:38.384Z,12.43
2018-12-09T09:43:13.281Z,10.30
2018-12-09T09:45:48.263Z,7.07
2018-12-09T09:48:23.153Z,6.67
2018-12-09T09:50:58.278Z,14.57
2018-12-09T09:53:33.281Z,14.33
2018-12-09T09:56:09.353Z,12.37
2018-12-09T09:58:44.251Z,10.97
2018-12-09T10:01:19.488Z,15.80
2018-12-09T10:03:55.108Z,13.30
2018-12-09T10:06:30.489Z,10.07
2018-12-09T10:09:07.020Z,11.00
2018-12-09T10:11:42.538Z,11.83
2018-12-09T10:14:17.569Z,14.10
2018-12-09T10:16:52.621Z,20.27
2018-12-09T10:19:27.814Z,18.07
2018-12-09T10:22:02.742Z,20.97
2018-12-09T10:24:37.633Z,15.93
2018-12-09T10:27:12.904Z,10.37
2018-12-09T10:29:47.848Z,19.40
2018-12-09T10:32:22.753Z,22.10
2018-12-09T10:34:57.580Z,16.80
2018-12-09T10:37:33.065Z,18.17
2018-12-09T10:40:08.696Z,16.73
2018-12-09T10:42:43.580Z,20.87
2018-12-09T10:45:18.694Z,14.00
2018-12-09T10:47:53.352Z,15.50
2018-12-09T10:50:28.466Z,15.50
2018-12-09T10:53:03.454Z,13.73
2018-12-09T10:55:38.388Z,22.77
2018-12-09T10:58:13.635Z,15.50
2018-12-09T11:00:56.653Z,16.50
2018-12-09T11:03:31.680Z,16.30
2018-12-09T11:06:07.169Z,14.17
2018-12-09T11:08:42.356Z,12.83
2018-12-09T11:11:17.811Z,14.33
2018-12-09T11:13:57.974Z,11.77
2018-12-09T11:16:29.712Z,11.67
2018-12-09T11:19:05.348Z,12.03
2018-12-09T11:21:40.224Z,18.63
2018-12-09T11:24:15.204Z,13.63
2018-12-09T11:26:50.244Z,11.70
2018-12-09T11:29:25.193Z,11.00
2018-12-09T11:32:00.468Z,7.67
2018-12-09T11:34:35.239Z,15.33
2018-12-09T11:37:10.206Z,12.57
2018-12-09T11:39:45.205Z,7.27
2018-12-09T11:42:20.278Z,10.77
2018-12-09T11:44:55.411Z,11.70
2018-12-09T11:47:30.862Z,14.93
2018-12-09T11:50:06.153Z,6.23
2018-12-09T11:52:42.208Z,3.33
2018-12-09T11:55:17.078Z,6.00
2018-12-09T11:57:52.121Z,2.57
2018-12-09T12:00:21.730Z,3.10
2018-12-09T12:02:51.407Z,3.57
2018-12-09T12:05:21.289Z,1.97
2018-12-09T12:07:50.714Z,6.77
2018-12-09T12:10:20.586Z,5.20
2018-12-09T12:12:50.101Z,2.27
2018-12-09T12:15:19.671Z,1.90
2018-12-09T12:17:49.256Z,3.93
2018-12-09T12:20:18.513Z,1.90
2018-12-09T12:22:47.855Z,5.40
2018-12-09T12:25:17.598Z,2.83
2018-12-09T12:27:47.056Z,3.70
2018-12-09T12:30:16.700Z,3.17
2018-12-09T12:32:46.950Z,2.20
2018-12-09T12:35:16.492Z,2.27
2018-12-09T12:37:45.831Z,3.17
2018-12-09T12:40:15.296Z,5.40
2018-12-09T12:42:45.091Z,4.80
2018-12-09T12:45:14.355Z,2.90
2018-12-09T12:47:44.295Z,5.33
2018-12-09T12:50:13.736Z,8.80
2018-12-09T12:52:43.716Z,7.37
2018-12-09T12:55:17.540Z,4.10
2018-12-09T12:57:46.876Z,4.17
2018-12-09T13:00:17.799Z,4.43
2018-12-09T13:02:47.248Z,7.00
2018-12-09T13:05:16.656Z,4.00
2018-12-09T13:07:46.215Z,4.40
2018-12-09T13:10:19.859Z,4.50
2018-12-09T13:12:50.057Z,3.90
2018-12-09T13:15:19.497Z,6.27
2018-12-09T13:17:49.018Z,4.47
2018-12-09T13:20:18.470Z,4.90
2018-12-09T13:22:48.269Z,6.73
2018-12-09T13:25:17.809Z,6.23
2018-12-09T13:27:47.272Z,3.13
2018-12-09T13:30:16.529Z,5.70
2018-12-09T13:32:46.072Z,4.03
2018-12-09T13:35:15.431Z,2.27
2018-12-09T13:37:45.026Z,6.30
2018-12-09T13:40:14.221Z,6.60
2018-12-09T13:42:43.641Z,4.73
2018-12-09T13:45:13.375Z,8.57
2018-12-09T13:47:44.295Z,7.27
2018-12-09T13:50:14.040Z,4.73
2018-12-09T13:52:43.383Z,8.00
2018-12-09T13:55:12.940Z,4.10
2018-12-09T13:57:48.219Z,5.90
2018-12-09T14:00:22.970Z,5.00
2018-12-09T14:02:59.665Z,5.10
2018-12-09T14:05:35.168Z,4.47
2018-12-09T14:08:10.298Z,7.30
2018-12-09T14:10:45.184Z,6.17
2018-12-09T14:13:20.402Z,4.13
2018-12-09T14:15:55.392Z,7.27
2018-12-09T14:18:30.604Z,5.03
2018-12-09T14:21:05.482Z,2.77
2018-12-09T14:23:40.445Z,7.83
2018-12-09T14:26:15.254Z,8.50
2018-12-09T14:28:51.378Z,12.80
2018-12-09T14:31:28.119Z,7.87
2018-12-09T14:34:02.995Z,4.07
2018-12-09T14:36:38.126Z,5.13
2018-12-09T14:39:12.910Z,6.63
2018-12-09T14:41:47.951Z,4.93
2018-12-09T14:44:22.708Z,4.50
2018-12-09T14:46:57.686Z,9.27
2018-12-09T14:49:32.515Z,4.67
2018-12-09T14:52:07.426Z,4.57
2018-12-09T14:54:42.877Z,9.03
2018-12-09T14:57:18.075Z,6.60
2018-12-09T14:59:53.239Z,4.60
2018-12-09T15:02:27.982Z,6.80
2018-12-09T15:05:02.910Z,16.30
2018-12-09T15:07:38.351Z,6.63
2018-12-09T15:10:14.106Z,9.40
2018-12-09T15:12:48.588Z,5.90
2018-12-09T15:15:23.607Z,7.00
2018-12-09T15:17:58.540Z,4.20
2018-12-09T15:20:33.304Z,3.37
2018-12-09T15:23:08.338Z,9.87
2018-12-09T15:25:43.370Z,7.67
2018-12-09T15:28:18.551Z,7.40
2018-12-09T15:30:53.965Z,3.33
2018-12-09T15:33:29.112Z,6.20
2018-12-09T15:36:03.924Z,6.50
2018-12-09T15:38:39.053Z,8.77
2018-12-09T15:41:13.869Z,9.10
2018-12-09T15:43:49.223Z,9.90
2018-12-09T15:46:24.212Z,11.23
2018-12-09T15:48:59.178Z,5.97
2018-12-09T15:51:34.577Z,9.00
2018-12-09T15:54:09.416Z,10.17
2018-12-09T15:56:44.452Z,13.67
2018-12-09T15:59:20.825Z,6.73
2018-12-09T16:01:56.634Z,12.47
2018-12-09T16:04:32.108Z,12.07
2018-12-09T16:07:07.329Z,3.57
2018-12-09T16:09:42.313Z,8.03
2018-12-09T16:12:17.312Z,12.37
2018-12-09T16:14:52.057Z,6.93
2018-12-09T16:17:27.756Z,6.53
2018-12-09T16:20:02.837Z,6.90
2018-12-09T16:22:37.871Z,9.60
2018-12-09T16:25:13.050Z,7.10
2018-12-09T16:27:48.656Z,14.23
2018-12-09T16:30:23.724Z,8.60
2018-12-09T16:32:58.747Z,8.57
2018-12-09T16:35:33.953Z,7.10
2018-12-09T16:38:09.370Z,13.53
2018-12-09T16:40:44.194Z,7.63
2018-12-09T16:43:19.135Z,5.77
2018-12-09T16:45:54.047Z,16.83
2018-12-09T16:48:29.156Z,11.47
2018-12-09T16:51:04.205Z,12.70
2018-12-09T16:53:38.947Z,7.90
2018-12-09T16:56:13.814Z,8.10
2018-12-09T16:58:49.016Z,13.07
2018-12-09T17:01:23.988Z,16.57
2018-12-09T17:03:58.865Z,7.67
2018-12-09T17:06:33.944Z,8.53
2018-12-09T17:09:10.907Z,10.73
2018-12-09T17:11:46.449Z,9.30
2018-12-09T17:14:21.494Z,13.53
2018-12-09T17:16:56.497Z,10.37
2018-12-09T17:19:31.678Z,13.93
2018-12-09T17:22:06.849Z,13.40
2018-12-09T17:24:41.905Z,10.80
2018-12-09T17:27:11.185Z,9.17
2018-12-09T17:29:46.287Z,12.77
2018-12-09T17:32:21.312Z,14.23
2018-12-09T17:34:56.560Z,12.83
2018-12-09T17:40:24.751Z,9.47
2018-12-09T17:42:59.898Z,9.90
2018-12-09T17:45:35.239Z,12.83
2018-12-09T17:48:10.269Z,9.40
2018-12-09T17:50:45.192Z,13.07
2018-12-09T17:53:20.749Z,18.07
2018-12-09T17:55:55.909Z,16.30
2018-12-09T17:58:30.801Z,8.83
2018-12-09T18:01:07.997Z,21.80
2018-12-09T18:03:42.986Z,7.03
2018-12-09T18:06:17.622Z,15.73
2018-12-09T18:08:47.166Z,19.47
2018-12-09T18:11:22.969Z,11.07
2018-12-09T18:13:58.275Z,11.40
2018-12-09T18:16:33.744Z,11.90
2018-12-09T18:19:08.684Z,8.93
2018-12-09T18:21:43.787Z,17.93
2018-12-09T18:24:18.918Z,10.93
2018-12-09T18:26:53.765Z,11.63
2018-12-09T18:29:30.568Z,11.07
2018-12-09T18:32:06.239Z,8.30
2018-12-09T18:34:42.101Z,10.90
2018-12-09T18:37:17.738Z,6.83
2018-12-09T18:39:53.810Z,11.00
2018-12-09T18:42:28.858Z,4.70
2018-12-09T18:45:04.478Z,4.07
2018-12-09T18:47:39.846Z,5.40
2018-12-09T18:50:14.799Z,12.17
2018-12-09T18:52:50.241Z,9.40
2018-12-09T18:55:25.288Z,6.90
2018-12-09T18:58:00.317Z,11.07
2018-12-09T19:00:35.286Z,8.03
2018-12-09T19:03:11.305Z,7.00
2018-12-09T19:05:45.928Z,7.57
2018-12-09T19:08:21.374Z,11.27
2018-12-09T19:10:57.980Z,9.03
2018-12-09T19:13:32.898Z,15.20
2018-12-09T19:16:07.999Z,13.80
2018-12-09T19:18:42.836Z,10.03
2018-12-09T19:21:17.811Z,8.80
2018-12-09T19:23:50.598Z,9.07
2018-12-09T19:26:25.581Z,7.60
2018-12-09T19:29:00.936Z,12.77
2018-12-09T19:31:36.047Z,17.33
2018-12-09T19:34:11.059Z,16.10
2018-12-09T19:36:46.107Z,10.00
2018-12-09T19:39:21.426Z,12.87
2018-12-09T19:41:56.489Z,12.73
2018-12-09T19:44:29.596Z,15.47
2018-12-09T19:47:04.582Z,11.77
2018-12-09T19:49:39.452Z,18.90
2018-12-09T19:52:14.536Z,13.90
2018-12-09T19:54:49.632Z,14.93
2018-12-09T19:57:24.598Z,13.30
2018-12-09T19:59:59.551Z,23.80
2018-12-09T20:02:34.491Z,20.17
2018-12-09T20:05:10.065Z,9.33
2018-12-09T20:07:44.917Z,14.90
2018-12-09T20:10:19.648Z,14.73
2018-12-09T20:12:54.847Z,16.30
2018-12-09T20:15:30.023Z,15.93
2018-12-09T20:18:05.515Z,12.13
2018-12-09T20:20:40.683Z,12.83
2018-12-09T20:23:15.537Z,14.03
2018-12-09T20:25:50.729Z,19.67
2018-12-09T20:28:25.698Z,15.87
2018-12-09T20:31:01.031Z,13.83
2018-12-09T20:33:35.915Z,17.03
2018-12-09T20:36:11.934Z,19.17
2018-12-09T20:38:46.777Z,10.13
2018-12-09T20:41:22.130Z,14.43
2018-12-09T20:43:57.074Z,13.70
2018-12-09T20:46:32.291Z,14.00
2018-12-09T20:49:07.585Z,13.17
2018-12-09T20:51:42.475Z,11.40
2018-12-09T20:54:18.125Z,11.50
2018-12-09T20:56:52.955Z,15.07
2018-12-09T20:59:27.959Z,12.40
2018-12-09T21:02:03.526Z,11.03
2018-12-09T21:04:38.553Z,7.90
2018-12-09T21:07:13.728Z,9.70
2018-12-09T21:09:48.955Z,9.03
2018-12-09T21:12:23.913Z,13.37
2018-12-09T21:14:59.066Z,12.47
2018-12-09T21:17:34.088Z,8.30
2018-12-09T21:20:10.152Z,17.10
2018-12-09T21:22:45.065Z,12.90
2018-12-09T21:25:19.922Z,14.17
2018-12-09T21:27:55.097Z,12.97
2018-12-09T21:30:30.017Z,8.03
2018-12-09T21:33:05.076Z,11.78
2018-12-09T21:35:40.129Z,10.73
2018-12-09T21:38:14.961Z,14.67
2018-12-09T21:40:50.022Z,14.20
2018-12-09T21:43:25.145Z,10.33
2018-12-09T21:45:59.988Z,12.60
2018-12-09T21:48:34.873Z,10.73
2018-12-09T21:51:10.088Z,10.43
2018-12-09T21:53:45.193Z,13.37
2018-12-09T21:56:19.914Z,9.07
2018-12-09T21:58:55.556Z,11.63
2018-12-09T22:01:31.029Z,20.03
2018-12-09T22:04:06.054Z,13.17
2018-12-09T22:06:35.514Z,20.07
2018-12-09T22:09:10.782Z,14.57
2018-12-09T22:11:45.866Z,13.03
2018-12-09T22:14:20.805Z,12.73
2018-12-09T22:16:55.926Z,11.30
2018-12-09T22:19:30.917Z,14.33
2018-12-09T22:22:06.689Z,11.80
2018-12-09T22:24:41.643Z,16.10
2018-12-09T22:27:16.698Z,14.60
2018-12-09T22:29:51.315Z,15.80
2018-12-09T22:32:26.372Z,11.53
2018-12-09T22:35:01.211Z,16.10
2018-12-09T22:37:36.179Z,18.10
2018-12-09T22:40:11.525Z,13.17
2018-12-09T22:42:46.463Z,17.90
2018-12-09T22:45:21.309Z,13.20
2018-12-09T22:47:57.015Z,7.90
2018-12-09T22:50:32.211Z,14.10
2018-12-09T22:53:07.100Z,13.10
2018-12-09T22:55:41.929Z,11.83
2018-12-09T22:58:17.097Z,10.87
2018-12-09T23:00:57.996Z,9.47
2018-12-09T23:03:32.905Z,13.87
2018-12-09T23:06:07.628Z,14.50
2018-12-09T23:08:42.632Z,10.53
2018-12-09T23:11:18.081Z,11.73
2018-12-09T23:13:53.047Z,10.13
2018-12-09T23:16:27.869Z,9.40
2018-12-09T23:19:02.535Z,9.90
2018-12-09T23:21:37.457Z,13.40
2018-12-09T23:24:12.678Z,12.37
2018-12-09T23:26:47.477Z,10.30
2018-12-09T23:29:22.321Z,8.87
2018-12-09T23:31:57.328Z,9.87
2018-12-09T23:34:32.221Z,9.40
2018-12-09T23:37:07.048Z,11.47
2018-12-09T23:39:41.942Z,5.90
2018-12-09T23:42:17.703Z,5.47
2018-12-09T23:44:52.838Z,9.87
2018-12-09T23:47:27.720Z,7.90
2018-12-09T23:50:02.867Z,11.67
2018-12-09T23:52:37.573Z,9.23
2018-12-09T23:55:07.114Z,14.20
2018-12-09T23:57:41.909Z,10.20
